EGNX

East Midlands Airport

Nottingham, United Kingdom
METAR EGNX 161720Z 25013KT 9999 SCT045 18/08 Q1012
Observed Flight Rules
Aug-16 @ 17:20 UTC (15 minutes ago) Visual Flight Rules
Wind Visibility Clouds
250° at 13 knots 10,000+ meters
  • Scattered at 4,500' AGL
Temperatures Readings
Current 18°C / 64°F
Dewpoint 8°C / 46°F
Humidity 52%
Altimeter 29.88" Hg
Pressure 1012 hPa
Elevation 94
METAR EGNX 161720Z 25013KT 9999 SCT045 18/08 Q1012
Observed Flight Rules
Aug-16 @ 17:20 UTC
(15 minutes ago)
VFR
Wind Visibility
250° at 13 knots 10,000+ meters
Clouds
  • Scattered at 4,500' AGL
Temperature Dewpoint
18°C / 64°F 8°C / 46°F
Humidity Altimeter Pressure
52% 29.88" Hg 1012 hPa